TimeAKDT,TemperatureF,Dew PointF,Humidity,Sea Level PressureIn,VisibilityMPH,Wind Direction,Wind SpeedMPH,Gust SpeedMPH,PrecipitationIn,Events,Conditions,WindDirDegrees,DateUTC
12:54 AM,62.1,55.0,78,30.12,10.0,Calm,Calm,-,N/A,,Clear,0,2013-07-29 08:54:00
1:54 AM,59.0,54.0,83,30.13,10.0,Calm,Calm,-,N/A,,Clear,0,2013-07-29 09:54:00
2:54 AM,61.0,55.9,83,30.13,10.0,NW,6.9,-,N/A,,Clear,320,2013-07-29 10:54:00
3:54 AM,60.1,55.9,86,30.13,10.0,Calm,Calm,-,N/A,,Clear,0,2013-07-29 11:54:00
4:54 AM,57.0,53.1,87,30.13,10.0,Calm,Calm,-,N/A,,Clear,0,2013-07-29 12:54:00
5:54 AM,57.9,54.0,87,30.14,10.0,Calm,Calm,-,N/A,,Clear,0,2013-07-29 13:54:00
6:54 AM,59.0,55.0,87,30.14,10.0,WNW,5.8,-,N/A,,Clear,300,2013-07-29 14:54:00
7:54 AM,64.0,55.9,75,30.14,10.0,Variable,3.5,-,N/A,,Clear,0,2013-07-29 15:54:00
8:54 AM,66.9,55.0,66,30.13,10.0,WNW,6.9,-,N/A,,Clear,290,2013-07-29 16:54:00
9:54 AM,71.1,55.9,59,30.12,10.0,WNW,6.9,-,N/A,,Clear,290,2013-07-29 17:54:00
10:54 AM,66.0,57.0,73,30.11,10.0,Calm,Calm,-,N/A,,Clear,0,2013-07-29 18:54:00
11:54 AM,68.0,55.9,65,30.10,10.0,Calm,Calm,-,N/A,,Clear,0,2013-07-29 19:54:00
12:54 PM,70.0,57.0,63,30.10,10.0,SE,4.6,-,N/A,,Clear,130,2013-07-29 20:54:00
1:54 PM,72.0,55.9,57,30.09,10.0,SE,3.5,-,N/A,,Clear,140,2013-07-29 21:54:00
2:54 PM,75.0,55.0,50,30.08,10.0,SE,6.9,-,N/A,,Clear,130,2013-07-29 22:54:00
3:54 PM,75.0,55.0,50,30.06,10.0,ESE,6.9,-,N/A,,Clear,120,2013-07-29 23:54:00
4:54 PM,71.1,55.0,57,30.06,10.0,SE,6.9,-,N/A,,Clear,130,2013-07-30 00:54:00
5:54 PM,70.0,55.0,59,30.05,10.0,SE,5.8,-,N/A,,Clear,130,2013-07-30 01:54:00
6:54 PM,71.1,54.0,55,30.05,10.0,East,3.5,-,N/A,,Clear,100,2013-07-30 02:54:00
7:54 PM,70.0,55.9,61,30.04,10.0,Calm,Calm,-,N/A,,Clear,0,2013-07-30 03:54:00
8:54 PM,66.9,55.0,66,30.06,10.0,Calm,Calm,-,N/A,,Clear,0,2013-07-30 04:54:00
9:54 PM,61.0,55.0,81,30.07,10.0,Calm,Calm,-,N/A,,Clear,0,2013-07-30 05:54:00
10:54 PM,60.1,54.0,80,30.08,10.0,Calm,Calm,-,N/A,,Clear,0,2013-07-30 06:54:00
11:54 PM,59.0,54.0,83,30.09,10.0,Calm,Calm,-,N/A,,Clear,0,2013-07-30 07:54:00